sensor_id;sensor_type;location;lat;lon;timestamp;temperature;humidity
37460;DHT22;23318;50.966;5.284;2022-07-15T00:01:52;16.00;99.90
37460;DHT22;23318;50.966;5.284;2022-07-15T00:04:18;16.10;99.90
37460;DHT22;23318;50.966;5.284;2022-07-15T00:06:43;16.20;99.90
37460;DHT22;23318;50.966;5.284;2022-07-15T00:09:09;15.90;99.90
37460;DHT22;23318;50.966;5.284;2022-07-15T00:11:35;15.90;99.90
37460;DHT22;23318;50.966;5.284;2022-07-15T00:14:00;15.80;99.90
37460;DHT22;23318;50.966;5.284;2022-07-15T00:16:26;15.60;99.90
37460;DHT22;23318;50.966;5.284;2022-07-15T00:18:52;15.50;99.90
37460;DHT22;23318;50.966;5.284;2022-07-15T00:21:17;15.50;99.90
37460;DHT22;23318;50.966;5.284;2022-07-15T00:23:43;15.50;99.90
37460;DHT22;23318;50.966;5.284;2022-07-15T00:26:08;15.50;99.90
37460;DHT22;23318;50.966;5.284;2022-07-15T00:28:34;15.40;99.90
37460;DHT22;23318;50.966;5.284;2022-07-15T00:31:00;15.40;99.90
37460;DHT22;23318;50.966;5.284;2022-07-15T00:33:25;15.70;99.90
37460;DHT22;23318;50.966;5.284;2022-07-15T00:35:51;16.00;99.90
37460;DHT22;23318;50.966;5.284;2022-07-15T00:38:17;16.10;99.90
37460;DHT22;23318;50.966;5.284;2022-07-15T00:40:47;15.80;99.90
37460;DHT22;23318;50.966;5.284;2022-07-15T00:43:13;15.90;99.90
37460;DHT22;23318;50.966;5.284;2022-07-15T00:45:41;15.80;99.90
37460;DHT22;23318;50.966;5.284;2022-07-15T00:48:07;15.80;99.90
37460;DHT22;23318;50.966;5.284;2022-07-15T00:50:32;15.90;99.90
37460;DHT22;23318;50.966;5.284;2022-07-15T00:55:24;15.80;99.90
37460;DHT22;23318;50.966;5.284;2022-07-15T00:57:52;15.40;99.90
37460;DHT22;23318;50.966;5.284;2022-07-15T01:00:20;15.50;99.90
37460;DHT22;23318;50.966;5.284;2022-07-15T01:02:46;15.50;99.90
37460;DHT22;23318;50.966;5.284;2022-07-15T01:05:19;15.50;99.90
37460;DHT22;23318;50.966;5.284;2022-07-15T01:07:46;15.30;99.90
37460;DHT22;23318;50.966;5.284;2022-07-15T01:10:12;15.50;99.90
37460;DHT22;23318;50.966;5.284;2022-07-15T01:12:38;15.50;99.90
37460;DHT22;23318;50.966;5.284;2022-07-15T01:15:06;15.60;99.90
37460;DHT22;23318;50.966;5.284;2022-07-15T01:17:32;15.80;99.90
37460;DHT22;23318;50.966;5.284;2022-07-15T01:19:57;15.90;99.90
37460;DHT22;23318;50.966;5.284;2022-07-15T01:22:23;15.90;99.90
37460;DHT22;23318;50.966;5.284;2022-07-15T01:24:49;15.90;99.90
37460;DHT22;23318;50.966;5.284;2022-07-15T01:27:15;15.50;99.90
37460;DHT22;23318;50.966;5.284;2022-07-15T01:29:40;15.60;99.90
37460;DHT22;23318;50.966;5.284;2022-07-15T01:32:06;15.70;99.90
37460;DHT22;23318;50.966;5.284;2022-07-15T01:34:32;15.30;99.90
37460;DHT22;23318;50.966;5.284;2022-07-15T01:36:57;15.50;99.90
37460;DHT22;23318;50.966;5.284;2022-07-15T01:39:23;15.50;99.90
37460;DHT22;23318;50.966;5.284;2022-07-15T01:41:49;15.30;99.90
37460;DHT22;23318;50.966;5.284;2022-07-15T01:44:14;15.00;99.90
37460;DHT22;23318;50.966;5.284;2022-07-15T01:46:40;14.80;99.90
37460;DHT22;23318;50.966;5.284;2022-07-15T01:49:06;14.80;99.90
37460;DHT22;23318;50.966;5.284;2022-07-15T01:51:50;15.00;99.90
37460;DHT22;23318;50.966;5.284;2022-07-15T01:54:16;15.10;99.90
37460;DHT22;23318;50.966;5.284;2022-07-15T01:56:43;15.10;99.90
37460;DHT22;23318;50.966;5.284;2022-07-15T01:59:08;14.90;99.90
37460;DHT22;23318;50.966;5.284;2022-07-15T02:01:34;14.50;99.90
37460;DHT22;23318;50.966;5.284;2022-07-15T02:04:01;14.20;99.90
37460;DHT22;23318;50.966;5.284;2022-07-15T02:06:27;13.80;99.90
37460;DHT22;23318;50.966;5.284;2022-07-15T02:08:52;13.90;99.90
37460;DHT22;23318;50.966;5.284;2022-07-15T02:11:18;14.20;99.90
37460;DHT22;23318;50.966;5.284;2022-07-15T02:13:44;13.90;99.90
37460;DHT22;23318;50.966;5.284;2022-07-15T02:16:09;14.00;99.90
37460;DHT22;23318;50.966;5.284;2022-07-15T02:18:35;14.10;99.90
37460;DHT22;23318;50.966;5.284;2022-07-15T02:21:00;14.00;99.90
37460;DHT22;23318;50.966;5.284;2022-07-15T02:23:28;13.80;99.90
37460;DHT22;23318;50.966;5.284;2022-07-15T02:25:54;13.80;99.90
37460;DHT22;23318;50.966;5.284;2022-07-15T02:28:19;13.70;99.90
37460;DHT22;23318;50.966;5.284;2022-07-15T02:30:45;13.30;99.90
37460;DHT22;23318;50.966;5.284;2022-07-15T02:33:11;13.40;99.90
37460;DHT22;23318;50.966;5.284;2022-07-15T02:35:39;13.60;99.90
37460;DHT22;23318;50.966;5.284;2022-07-15T02:38:05;13.40;99.90
37460;DHT22;23318;50.966;5.284;2022-07-15T02:40:31;12.80;99.90
37460;DHT22;23318;50.966;5.284;2022-07-15T02:42:58;13.10;99.90
37460;DHT22;23318;50.966;5.284;2022-07-15T02:45:26;13.40;99.90
37460;DHT22;23318;50.966;5.284;2022-07-15T02:47:53;13.40;99.90
37460;DHT22;23318;50.966;5.284;2022-07-15T02:50:21;13.30;99.90
37460;DHT22;23318;50.966;5.284;2022-07-15T02:52:47;13.30;99.90
37460;DHT22;23318;50.966;5.284;2022-07-15T02:55:14;13.30;99.90
37460;DHT22;23318;50.966;5.284;2022-07-15T02:57:40;13.50;99.90
37460;DHT22;23318;50.966;5.284;2022-07-15T03:00:09;13.40;99.90
37460;DHT22;23318;50.966;5.284;2022-07-15T03:02:37;13.50;99.90
37460;DHT22;23318;50.966;5.284;2022-07-15T03:05:03;13.60;99.90
37460;DHT22;23318;50.966;5.284;2022-07-15T03:07:29;13.50;99.90
37460;DHT22;23318;50.966;5.284;2022-07-15T03:09:55;13.60;99.90
37460;DHT22;23318;50.966;5.284;2022-07-15T03:12:21;13.40;99.90
37460;DHT22;23318;50.966;5.284;2022-07-15T03:14:47;13.40;99.90
37460;DHT22;23318;50.966;5.284;2022-07-15T03:17:13;13.50;99.90
37460;DHT22;23318;50.966;5.284;2022-07-15T03:19:38;13.50;99.90
37460;DHT22;23318;50.966;5.284;2022-07-15T03:22:05;12.80;99.90
37460;DHT22;23318;50.966;5.284;2022-07-15T03:24:31;12.20;99.90
37460;DHT22;23318;50.966;5.284;2022-07-15T03:26:56;12.30;99.90
37460;DHT22;23318;50.966;5.284;2022-07-15T03:29:22;12.40;99.90
37460;DHT22;23318;50.966;5.284;2022-07-15T03:31:47;12.80;99.90
37460;DHT22;23318;50.966;5.284;2022-07-15T03:34:13;13.10;99.90
37460;DHT22;23318;50.966;5.284;2022-07-15T03:36:39;13.30;99.90
37460;DHT22;23318;50.966;5.284;2022-07-15T03:39:06;13.30;99.90
37460;DHT22;23318;50.966;5.284;2022-07-15T03:41:32;13.30;99.90
37460;DHT22;23318;50.966;5.284;2022-07-15T03:43:59;13.40;99.90
37460;DHT22;23318;50.966;5.284;2022-07-15T03:46:26;13.30;99.90
37460;DHT22;23318;50.966;5.284;2022-07-15T03:48:52;13.30;99.90
37460;DHT22;23318;50.966;5.284;2022-07-15T03:51:17;13.30;99.90
37460;DHT22;23318;50.966;5.284;2022-07-15T03:53:43;13.20;99.90
37460;DHT22;23318;50.966;5.284;2022-07-15T03:56:09;13.20;99.90
37460;DHT22;23318;50.966;5.284;2022-07-15T03:58:34;13.20;99.90
37460;DHT22;23318;50.966;5.284;2022-07-15T04:01:00;13.20;99.90
37460;DHT22;23318;50.966;5.284;2022-07-15T04:03:26;13.20;99.90
37460;DHT22;23318;50.966;5.284;2022-07-15T04:05:52;13.20;99.90
37460;DHT22;23318;50.966;5.284;2022-07-15T04:08:18;13.20;99.90
37460;DHT22;23318;50.966;5.284;2022-07-15T04:10:44;13.20;99.90
37460;DHT22;23318;50.966;5.284;2022-07-15T04:13:09;13.20;99.90
37460;DHT22;23318;50.966;5.284;2022-07-15T04:15:35;13.30;99.90
37460;DHT22;23318;50.966;5.284;2022-07-15T04:18:00;13.40;99.90
37460;DHT22;23318;50.966;5.284;2022-07-15T04:20:27;13.40;99.90
37460;DHT22;23318;50.966;5.284;2022-07-15T04:22:53;13.50;99.90
37460;DHT22;23318;50.966;5.284;2022-07-15T04:25:20;13.50;99.90
37460;DHT22;23318;50.966;5.284;2022-07-15T04:27:47;13.50;99.90
37460;DHT22;23318;50.966;5.284;2022-07-15T04:30:14;13.20;99.90
37460;DHT22;23318;50.966;5.284;2022-07-15T04:32:41;13.00;99.90
37460;DHT22;23318;50.966;5.284;2022-07-15T04:35:07;13.00;99.90
37460;DHT22;23318;50.966;5.284;2022-07-15T04:37:33;13.10;99.90
37460;DHT22;23318;50.966;5.284;2022-07-15T04:39:58;13.30;99.90
37460;DHT22;23318;50.966;5.284;2022-07-15T04:42:24;13.30;99.90
37460;DHT22;23318;50.966;5.284;2022-07-15T04:44:50;13.40;99.90
37460;DHT22;23318;50.966;5.284;2022-07-15T04:47:16;13.20;99.90
37460;DHT22;23318;50.966;5.284;2022-07-15T04:49:42;13.40;99.90
37460;DHT22;23318;50.966;5.284;2022-07-15T04:52:27;13.70;99.90
37460;DHT22;23318;50.966;5.284;2022-07-15T04:54:53;13.60;99.90
37460;DHT22;23318;50.966;5.284;2022-07-15T04:57:19;13.70;99.90
37460;DHT22;23318;50.966;5.284;2022-07-15T04:59:45;13.80;99.90
37460;DHT22;23318;50.966;5.284;2022-07-15T05:02:11;13.30;99.90
37460;DHT22;23318;50.966;5.284;2022-07-15T05:04:36;12.60;99.90
37460;DHT22;23318;50.966;5.284;2022-07-15T05:07:02;12.40;99.90
37460;DHT22;23318;50.966;5.284;2022-07-15T05:09:29;12.60;99.90
37460;DHT22;23318;50.966;5.284;2022-07-15T05:11:54;13.30;99.90
37460;DHT22;23318;50.966;5.284;2022-07-15T05:14:20;14.00;99.90
37460;DHT22;23318;50.966;5.284;2022-07-15T05:16:45;14.30;99.90
37460;DHT22;23318;50.966;5.284;2022-07-15T05:19:12;14.60;99.90
37460;DHT22;23318;50.966;5.284;2022-07-15T05:21:37;14.20;99.90
37460;DHT22;23318;50.966;5.284;2022-07-15T05:24:03;14.20;99.90
37460;DHT22;23318;50.966;5.284;2022-07-15T05:26:29;14.00;99.90
37460;DHT22;23318;50.966;5.284;2022-07-15T05:28:55;14.30;99.90
37460;DHT22;23318;50.966;5.284;2022-07-15T05:31:20;14.60;99.90
37460;DHT22;23318;50.966;5.284;2022-07-15T05:33:47;14.60;99.90
37460;DHT22;23318;50.966;5.284;2022-07-15T05:36:14;14.50;99.90
37460;DHT22;23318;50.966;5.284;2022-07-15T05:38:41;14.40;99.90
37460;DHT22;23318;50.966;5.284;2022-07-15T05:41:07;14.40;99.90
37460;DHT22;23318;50.966;5.284;2022-07-15T05:43:32;14.20;99.90
37460;DHT22;23318;50.966;5.284;2022-07-15T05:45:58;14.00;99.90
37460;DHT22;23318;50.966;5.284;2022-07-15T05:48:24;14.10;99.90
37460;DHT22;23318;50.966;5.284;2022-07-15T05:50:49;14.50;99.90
37460;DHT22;23318;50.966;5.284;2022-07-15T05:53:15;14.40;99.90
37460;DHT22;23318;50.966;5.284;2022-07-15T05:55:41;14.80;99.90
37460;DHT22;23318;50.966;5.284;2022-07-15T05:58:08;15.20;99.90
37460;DHT22;23318;50.966;5.284;2022-07-15T06:00:34;15.50;99.90
37460;DHT22;23318;50.966;5.284;2022-07-15T06:03:00;15.50;99.90
37460;DHT22;23318;50.966;5.284;2022-07-15T06:05:27;15.70;99.90
37460;DHT22;23318;50.966;5.284;2022-07-15T06:07:54;15.80;99.90
37460;DHT22;23318;50.966;5.284;2022-07-15T06:10:19;15.60;99.90
37460;DHT22;23318;50.966;5.284;2022-07-15T06:12:45;15.80;99.90
37460;DHT22;23318;50.966;5.284;2022-07-15T06:15:11;15.90;99.90
37460;DHT22;23318;50.966;5.284;2022-07-15T06:17:37;16.20;99.90
37460;DHT22;23318;50.966;5.284;2022-07-15T06:20:04;16.10;99.90
37460;DHT22;23318;50.966;5.284;2022-07-15T06:22:29;16.40;99.90
37460;DHT22;23318;50.966;5.284;2022-07-15T06:24:55;16.60;99.90
37460;DHT22;23318;50.966;5.284;2022-07-15T06:27:21;16.80;99.90
37460;DHT22;23318;50.966;5.284;2022-07-15T06:29:50;16.60;99.90
37460;DHT22;23318;50.966;5.284;2022-07-15T06:32:17;16.60;99.90
37460;DHT22;23318;50.966;5.284;2022-07-15T06:34:43;16.90;99.90
37460;DHT22;23318;50.966;5.284;2022-07-15T06:37:09;16.80;99.90
37460;DHT22;23318;50.966;5.284;2022-07-15T06:39:35;17.00;99.90
37460;DHT22;23318;50.966;5.284;2022-07-15T06:42:01;17.10;99.90
37460;DHT22;23318;50.966;5.284;2022-07-15T06:44:27;16.90;99.90
37460;DHT22;23318;50.966;5.284;2022-07-15T06:46:53;17.10;99.90
37460;DHT22;23318;50.966;5.284;2022-07-15T06:49:19;17.40;99.90
37460;DHT22;23318;50.966;5.284;2022-07-15T06:51:45;17.40;99.90
37460;DHT22;23318;50.966;5.284;2022-07-15T06:54:10;17.60;99.90
37460;DHT22;23318;50.966;5.284;2022-07-15T06:56:37;17.70;99.90
37460;DHT22;23318;50.966;5.284;2022-07-15T06:59:03;17.90;99.90
37460;DHT22;23318;50.966;5.284;2022-07-15T07:01:29;18.10;99.90
37460;DHT22;23318;50.966;5.284;2022-07-15T07:03:55;17.80;99.90
37460;DHT22;23318;50.966;5.284;2022-07-15T07:06:21;17.60;99.90
37460;DHT22;23318;50.966;5.284;2022-07-15T07:08:47;17.60;99.90
37460;DHT22;23318;50.966;5.284;2022-07-15T07:11:14;17.90;99.90
37460;DHT22;23318;50.966;5.284;2022-07-15T07:13:40;18.10;99.90
37460;DHT22;23318;50.966;5.284;2022-07-15T07:16:07;18.50;99.90
37460;DHT22;23318;50.966;5.284;2022-07-15T07:18:33;18.60;99.90
37460;DHT22;23318;50.966;5.284;2022-07-15T07:20:58;18.80;99.90
37460;DHT22;23318;50.966;5.284;2022-07-15T07:23:24;18.90;99.90
37460;DHT22;23318;50.966;5.284;2022-07-15T07:25:53;18.80;99.90
37460;DHT22;23318;50.966;5.284;2022-07-15T07:28:19;18.60;99.90
37460;DHT22;23318;50.966;5.284;2022-07-15T07:30:44;18.70;99.90
37460;DHT22;23318;50.966;5.284;2022-07-15T07:33:11;18.70;99.90
37460;DHT22;23318;50.966;5.284;2022-07-15T07:35:37;19.00;99.90
37460;DHT22;23318;50.966;5.284;2022-07-15T07:38:03;19.00;99.90
37460;DHT22;23318;50.966;5.284;2022-07-15T07:40:29;19.40;99.90
37460;DHT22;23318;50.966;5.284;2022-07-15T07:42:54;19.40;99.90
37460;DHT22;23318;50.966;5.284;2022-07-15T07:45:22;19.30;99.90
37460;DHT22;23318;50.966;5.284;2022-07-15T07:47:48;19.10;99.90
37460;DHT22;23318;50.966;5.284;2022-07-15T07:50:14;18.60;99.90
37460;DHT22;23318;50.966;5.284;2022-07-15T07:52:39;18.80;99.90
37460;DHT22;23318;50.966;5.284;2022-07-15T07:55:05;18.20;99.90
37460;DHT22;23318;50.966;5.284;2022-07-15T07:57:31;18.10;99.90
37460;DHT22;23318;50.966;5.284;2022-07-15T07:59:58;17.90;99.90
37460;DHT22;23318;50.966;5.284;2022-07-15T08:02:24;17.80;99.90
37460;DHT22;23318;50.966;5.284;2022-07-15T08:04:49;18.30;99.90
37460;DHT22;23318;50.966;5.284;2022-07-15T08:07:15;18.40;99.90
37460;DHT22;23318;50.966;5.284;2022-07-15T08:09:41;18.40;99.90
37460;DHT22;23318;50.966;5.284;2022-07-15T08:12:06;18.60;99.90
37460;DHT22;23318;50.966;5.284;2022-07-15T08:14:33;19.00;99.90
37460;DHT22;23318;50.966;5.284;2022-07-15T08:16:58;19.50;99.90
37460;DHT22;23318;50.966;5.284;2022-07-15T08:19:24;19.60;99.90
37460;DHT22;23318;50.966;5.284;2022-07-15T08:21:50;19.50;99.90
37460;DHT22;23318;50.966;5.284;2022-07-15T08:24:17;19.00;99.90
37460;DHT22;23318;50.966;5.284;2022-07-15T08:26:43;19.10;99.90
37460;DHT22;23318;50.966;5.284;2022-07-15T08:29:09;19.70;99.90
37460;DHT22;23318;50.966;5.284;2022-07-15T08:31:36;19.20;99.90
37460;DHT22;23318;50.966;5.284;2022-07-15T08:34:03;19.00;99.90
37460;DHT22;23318;50.966;5.284;2022-07-15T08:36:28;19.90;99.90
37460;DHT22;23318;50.966;5.284;2022-07-15T08:38:54;20.30;99.90
37460;DHT22;23318;50.966;5.284;2022-07-15T08:41:20;20.10;99.60
37460;DHT22;23318;50.966;5.284;2022-07-15T08:43:46;19.60;99.90
37460;DHT22;23318;50.966;5.284;2022-07-15T08:46:13;19.20;99.90
37460;DHT22;23318;50.966;5.284;2022-07-15T08:48:41;19.10;99.90
37460;DHT22;23318;50.966;5.284;2022-07-15T08:51:12;18.90;99.90
37460;DHT22;23318;50.966;5.284;2022-07-15T08:53:38;19.20;99.90
37460;DHT22;23318;50.966;5.284;2022-07-15T08:56:05;19.30;99.90
37460;DHT22;23318;50.966;5.284;2022-07-15T08:58:34;19.40;99.90
37460;DHT22;23318;50.966;5.284;2022-07-15T09:01:00;19.30;99.90
37460;DHT22;23318;50.966;5.284;2022-07-15T09:03:25;19.50;99.90
37460;DHT22;23318;50.966;5.284;2022-07-15T09:05:51;19.80;99.90
37460;DHT22;23318;50.966;5.284;2022-07-15T09:08:18;20.10;99.20
37460;DHT22;23318;50.966;5.284;2022-07-15T09:10:45;20.00;99.90
37460;DHT22;23318;50.966;5.284;2022-07-15T09:15:48;19.80;99.90
37460;DHT22;23318;50.966;5.284;2022-07-15T09:18:17;19.80;99.90
37460;DHT22;23318;50.966;5.284;2022-07-15T09:20:44;19.90;99.20
37460;DHT22;23318;50.966;5.284;2022-07-15T09:23:11;20.30;99.00
37460;DHT22;23318;50.966;5.284;2022-07-15T09:25:38;20.80;97.90
37460;DHT22;23318;50.966;5.284;2022-07-15T09:28:06;21.20;97.40
37460;DHT22;23318;50.966;5.284;2022-07-15T09:30:36;21.40;97.30
37460;DHT22;23318;50.966;5.284;2022-07-15T09:33:23;21.60;97.00
37460;DHT22;23318;50.966;5.284;2022-07-15T09:36:24;21.40;98.00
37460;DHT22;23318;50.966;5.284;2022-07-15T09:38:56;20.60;98.40
37460;DHT22;23318;50.966;5.284;2022-07-15T09:43:59;21.20;97.10
37460;DHT22;23318;50.966;5.284;2022-07-15T09:46:58;20.80;97.80
37460;DHT22;23318;50.966;5.284;2022-07-15T09:52:10;20.90;97.80
37460;DHT22;23318;50.966;5.284;2022-07-15T09:54:38;21.10;97.60
37460;DHT22;23318;50.966;5.284;2022-07-15T09:57:06;21.20;97.20
37460;DHT22;23318;50.966;5.284;2022-07-15T09:59:34;21.60;97.00
37460;DHT22;23318;50.966;5.284;2022-07-15T10:01:59;21.80;96.30
37460;DHT22;23318;50.966;5.284;2022-07-15T10:04:27;22.00;97.30
37460;DHT22;23318;50.966;5.284;2022-07-15T10:06:54;22.10;96.80
37460;DHT22;23318;50.966;5.284;2022-07-15T10:09:23;22.20;96.70
37460;DHT22;23318;50.966;5.284;2022-07-15T10:11:52;22.10;95.30
37460;DHT22;23318;50.966;5.284;2022-07-15T10:17:13;21.70;95.10
37460;DHT22;23318;50.966;5.284;2022-07-15T10:20:01;21.60;95.30
37460;DHT22;23318;50.966;5.284;2022-07-15T10:22:47;22.00;95.30
37460;DHT22;23318;50.966;5.284;2022-07-15T10:28:14;22.70;94.00
37460;DHT22;23318;50.966;5.284;2022-07-15T10:30:41;22.60;93.70
37460;DHT22;23318;50.966;5.284;2022-07-15T10:33:18;22.70;94.20
37460;DHT22;23318;50.966;5.284;2022-07-15T10:35:48;23.00;93.50
37460;DHT22;23318;50.966;5.284;2022-07-15T10:38:31;22.60;93.20
37460;DHT22;23318;50.966;5.284;2022-07-15T10:43:49;23.00;93.10
37460;DHT22;23318;50.966;5.284;2022-07-15T10:46:22;23.20;92.90
37460;DHT22;23318;50.966;5.284;2022-07-15T10:48:50;23.40;92.80
37460;DHT22;23318;50.966;5.284;2022-07-15T10:54:01;23.50;92.30
37460;DHT22;23318;50.966;5.284;2022-07-15T10:56:37;23.70;92.40
37460;DHT22;23318;50.966;5.284;2022-07-15T10:59:13;24.00;91.80
37460;DHT22;23318;50.966;5.284;2022-07-15T11:01:44;25.60;90.40
37460;DHT22;23318;50.966;5.284;2022-07-15T11:04:16;27.10;87.00
37460;DHT22;23318;50.966;5.284;2022-07-15T11:19:53;28.00;79.20
37460;DHT22;23318;50.966;5.284;2022-07-15T11:22:21;27.70;78.50
37460;DHT22;23318;50.966;5.284;2022-07-15T11:24:47;27.70;78.70
37460;DHT22;23318;50.966;5.284;2022-07-15T11:27:13;29.60;76.90
37460;DHT22;23318;50.966;5.284;2022-07-15T11:29:45;30.70;73.50
37460;DHT22;23318;50.966;5.284;2022-07-15T11:32:12;30.10;71.90
37460;DHT22;23318;50.966;5.284;2022-07-15T11:34:43;30.70;70.80
37460;DHT22;23318;50.966;5.284;2022-07-15T11:37:09;31.60;69.60
37460;DHT22;23318;50.966;5.284;2022-07-15T11:39:45;31.90;67.30
37460;DHT22;23318;50.966;5.284;2022-07-15T11:42:18;31.40;67.00
37460;DHT22;23318;50.966;5.284;2022-07-15T11:45:03;30.90;67.40
37460;DHT22;23318;50.966;5.284;2022-07-15T11:47:28;30.50;66.40
37460;DHT22;23318;50.966;5.284;2022-07-15T11:50:00;27.80;68.60
37460;DHT22;23318;50.966;5.284;2022-07-15T11:52:26;26.60;71.10
37460;DHT22;23318;50.966;5.284;2022-07-15T11:54:51;29.60;70.30
37460;DHT22;23318;50.966;5.284;2022-07-15T11:57:17;30.70;67.10
37460;DHT22;23318;50.966;5.284;2022-07-15T11:59:55;31.40;65.90
37460;DHT22;23318;50.966;5.284;2022-07-15T12:02:25;31.40;65.90
37460;DHT22;23318;50.966;5.284;2022-07-15T12:04:52;28.70;66.80
37460;DHT22;23318;50.966;5.284;2022-07-15T12:07:44;29.00;67.20
37460;DHT22;23318;50.966;5.284;2022-07-15T12:10:12;28.70;69.40
37460;DHT22;23318;50.966;5.284;2022-07-15T12:12:55;28.20;69.10
37460;DHT22;23318;50.966;5.284;2022-07-15T12:15:22;27.60;70.30
37460;DHT22;23318;50.966;5.284;2022-07-15T12:17:48;30.60;68.40
37460;DHT22;23318;50.966;5.284;2022-07-15T12:20:15;32.50;65.50
37460;DHT22;23318;50.966;5.284;2022-07-15T12:23:04;30.60;66.40
37460;DHT22;23318;50.966;5.284;2022-07-15T12:25:31;28.00;69.80
37460;DHT22;23318;50.966;5.284;2022-07-15T12:27:56;28.10;70.20
37460;DHT22;23318;50.966;5.284;2022-07-15T12:30:33;26.90;70.10
37460;DHT22;23318;50.966;5.284;2022-07-15T12:33:20;26.50;72.20
37460;DHT22;23318;50.966;5.284;2022-07-15T12:35:46;28.70;69.50
37460;DHT22;23318;50.966;5.284;2022-07-15T12:38:29;30.10;69.80
37460;DHT22;23318;50.966;5.284;2022-07-15T12:41:10;30.00;67.90
37460;DHT22;23318;50.966;5.284;2022-07-15T12:43:55;31.00;66.70
37460;DHT22;23318;50.966;5.284;2022-07-15T12:46:48;29.70;67.00
37460;DHT22;23318;50.966;5.284;2022-07-15T12:54:51;28.20;68.20
37460;DHT22;23318;50.966;5.284;2022-07-15T13:02:23;26.30;71.20
37460;DHT22;23318;50.966;5.284;2022-07-15T13:04:49;25.60;71.70
37460;DHT22;23318;50.966;5.284;2022-07-15T13:07:16;25.40;72.20
37460;DHT22;23318;50.966;5.284;2022-07-15T13:09:42;25.50;73.70
37460;DHT22;23318;50.966;5.284;2022-07-15T13:12:09;27.50;72.50
37460;DHT22;23318;50.966;5.284;2022-07-15T13:14:36;30.90;67.70
37460;DHT22;23318;50.966;5.284;2022-07-15T13:17:02;33.20;65.60
37460;DHT22;23318;50.966;5.284;2022-07-15T13:19:28;34.20;63.40
37460;DHT22;23318;50.966;5.284;2022-07-15T13:21:54;33.70;62.90
37460;DHT22;23318;50.966;5.284;2022-07-15T13:24:20;31.90;63.80
37460;DHT22;23318;50.966;5.284;2022-07-15T13:26:46;30.80;64.60
37460;DHT22;23318;50.966;5.284;2022-07-15T13:29:11;29.40;65.70
37460;DHT22;23318;50.966;5.284;2022-07-15T13:31:37;28.70;67.30
37460;DHT22;23318;50.966;5.284;2022-07-15T13:34:03;28.70;68.10
37460;DHT22;23318;50.966;5.284;2022-07-15T13:36:28;28.30;67.60
37460;DHT22;23318;50.966;5.284;2022-07-15T13:38:54;28.50;67.20
37460;DHT22;23318;50.966;5.284;2022-07-15T13:41:20;27.60;68.80
37460;DHT22;23318;50.966;5.284;2022-07-15T13:43:45;27.00;69.00
37460;DHT22;23318;50.966;5.284;2022-07-15T13:46:11;27.30;69.10
37460;DHT22;23318;50.966;5.284;2022-07-15T13:48:37;28.80;67.90
37460;DHT22;23318;50.966;5.284;2022-07-15T13:51:03;31.60;65.50
37460;DHT22;23318;50.966;5.284;2022-07-15T13:53:47;34.20;63.70
37460;DHT22;23318;50.966;5.284;2022-07-15T13:56:12;34.40;62.00
37460;DHT22;23318;50.966;5.284;2022-07-15T13:58:38;35.70;62.00
37460;DHT22;23318;50.966;5.284;2022-07-15T14:01:03;35.90;61.10
37460;DHT22;23318;50.966;5.284;2022-07-15T14:03:29;37.20;59.90
37460;DHT22;23318;50.966;5.284;2022-07-15T14:05:55;35.00;58.60
37460;DHT22;23318;50.966;5.284;2022-07-15T14:08:20;35.60;58.80
37460;DHT22;23318;50.966;5.284;2022-07-15T14:10:46;36.40;58.00
37460;DHT22;23318;50.966;5.284;2022-07-15T14:13:12;34.40;58.50
37460;DHT22;23318;50.966;5.284;2022-07-15T14:15:37;31.80;60.10
37460;DHT22;23318;50.966;5.284;2022-07-15T14:18:04;31.10;60.70
37460;DHT22;23318;50.966;5.284;2022-07-15T14:20:30;30.30;62.10
37460;DHT22;23318;50.966;5.284;2022-07-15T14:22:56;31.90;61.40
37460;DHT22;23318;50.966;5.284;2022-07-15T14:25:21;31.50;60.00
37460;DHT22;23318;50.966;5.284;2022-07-15T14:27:47;29.80;61.80
37460;DHT22;23318;50.966;5.284;2022-07-15T14:30:13;32.00;61.80
37460;DHT22;23318;50.966;5.284;2022-07-15T14:32:41;31.10;61.40
37460;DHT22;23318;50.966;5.284;2022-07-15T14:35:07;33.10;60.80
37460;DHT22;23318;50.966;5.284;2022-07-15T14:37:33;35.50;57.00
37460;DHT22;23318;50.966;5.284;2022-07-15T14:39:59;35.00;58.20
37460;DHT22;23318;50.966;5.284;2022-07-15T14:42:24;35.00;58.40
37460;DHT22;23318;50.966;5.284;2022-07-15T14:44:50;33.80;58.00
37460;DHT22;23318;50.966;5.284;2022-07-15T14:47:16;32.30;59.40
37460;DHT22;23318;50.966;5.284;2022-07-15T14:49:42;30.50;60.90
37460;DHT22;23318;50.966;5.284;2022-07-15T14:52:08;29.70;61.60
37460;DHT22;23318;50.966;5.284;2022-07-15T14:54:33;30.10;60.80
37460;DHT22;23318;50.966;5.284;2022-07-15T14:56:59;33.40;59.30
37460;DHT22;23318;50.966;5.284;2022-07-15T14:59:25;35.30;57.30
37460;DHT22;23318;50.966;5.284;2022-07-15T15:01:50;36.00;57.10
37460;DHT22;23318;50.966;5.284;2022-07-15T15:04:19;35.20;57.10
37460;DHT22;23318;50.966;5.284;2022-07-15T15:06:44;32.50;58.60
37460;DHT22;23318;50.966;5.284;2022-07-15T15:09:10;31.40;60.20
37460;DHT22;23318;50.966;5.284;2022-07-15T15:11:36;30.40;60.40
37460;DHT22;23318;50.966;5.284;2022-07-15T15:14:02;29.50;61.80
37460;DHT22;23318;50.966;5.284;2022-07-15T15:16:29;28.80;62.70
37460;DHT22;23318;50.966;5.284;2022-07-15T15:18:55;28.20;62.50
37460;DHT22;23318;50.966;5.284;2022-07-15T15:21:21;28.40;62.90
37460;DHT22;23318;50.966;5.284;2022-07-15T15:23:47;30.50;61.90
37460;DHT22;23318;50.966;5.284;2022-07-15T15:26:13;30.10;61.00
37460;DHT22;23318;50.966;5.284;2022-07-15T15:28:49;29.30;62.40
37460;DHT22;23318;50.966;5.284;2022-07-15T15:31:15;28.50;63.40
37460;DHT22;23318;50.966;5.284;2022-07-15T15:33:41;27.80;64.40
37460;DHT22;23318;50.966;5.284;2022-07-15T15:36:07;27.60;64.60
37460;DHT22;23318;50.966;5.284;2022-07-15T15:38:32;28.50;63.80
37460;DHT22;23318;50.966;5.284;2022-07-15T15:40:58;31.00;62.30
37460;DHT22;23318;50.966;5.284;2022-07-15T15:43:24;32.60;60.90
37460;DHT22;23318;50.966;5.284;2022-07-15T15:45:51;34.40;59.20
37460;DHT22;23318;50.966;5.284;2022-07-15T15:48:16;34.50;58.20
37460;DHT22;23318;50.966;5.284;2022-07-15T15:50:42;34.60;57.40
37460;DHT22;23318;50.966;5.284;2022-07-15T15:53:08;35.00;58.00
37460;DHT22;23318;50.966;5.284;2022-07-15T15:55:34;35.90;56.30
37460;DHT22;23318;50.966;5.284;2022-07-15T15:58:00;36.40;54.80
37460;DHT22;23318;50.966;5.284;2022-07-15T16:00:26;33.50;56.60
37460;DHT22;23318;50.966;5.284;2022-07-15T16:02:52;32.10;58.00
37460;DHT22;23318;50.966;5.284;2022-07-15T16:05:17;32.90;57.60
37460;DHT22;23318;50.966;5.284;2022-07-15T16:07:43;33.10;56.40
37460;DHT22;23318;50.966;5.284;2022-07-15T16:10:09;32.90;57.30
37460;DHT22;23318;50.966;5.284;2022-07-15T16:12:35;31.90;57.20
37460;DHT22;23318;50.966;5.284;2022-07-15T16:15:02;30.80;59.60
37460;DHT22;23318;50.966;5.284;2022-07-15T16:17:28;29.50;61.30